sensor_id;sensor_type;location;lat;lon;timestamp;P1;durP1;ratioP1;P2;durP2;ratioP2
19343;SDS011;9808;52.402;16.678;2023-11-18T00:01:38;20.53;;;9.90;;
19343;SDS011;9808;52.402;16.678;2023-11-18T00:04:07;19.07;;;9.17;;
19343;SDS011;9808;52.402;16.678;2023-11-18T00:06:42;23.47;;;9.37;;
19343;SDS011;9808;52.402;16.678;2023-11-18T00:09:12;22.73;;;10.83;;
19343;SDS011;9808;52.402;16.678;2023-11-18T00:11:40;24.10;;;10.40;;
19343;SDS011;9808;52.402;16.678;2023-11-18T00:14:08;20.20;;;9.20;;
19343;SDS011;9808;52.402;16.678;2023-11-18T00:16:37;23.33;;;9.77;;
19343;SDS011;9808;52.402;16.678;2023-11-18T00:19:05;22.27;;;9.97;;
19343;SDS011;9808;52.402;16.678;2023-11-18T00:21:32;18.57;;;8.83;;
19343;SDS011;9808;52.402;16.678;2023-11-18T00:24:00;19.57;;;9.53;;
19343;SDS011;9808;52.402;16.678;2023-11-18T00:26:27;18.23;;;8.50;;
19343;SDS011;9808;52.402;16.678;2023-11-18T00:28:55;21.17;;;9.20;;
19343;SDS011;9808;52.402;16.678;2023-11-18T00:31:23;19.93;;;9.27;;
19343;SDS011;9808;52.402;16.678;2023-11-18T00:33:51;20.30;;;9.43;;
19343;SDS011;9808;52.402;16.678;2023-11-18T00:36:19;19.73;;;8.93;;
19343;SDS011;9808;52.402;16.678;2023-11-18T00:38:46;22.50;;;9.53;;
19343;SDS011;9808;52.402;16.678;2023-11-18T00:41:13;21.77;;;9.47;;
19343;SDS011;9808;52.402;16.678;2023-11-18T00:43:40;21.90;;;10.33;;
19343;SDS011;9808;52.402;16.678;2023-11-18T00:46:08;22.97;;;9.80;;
19343;SDS011;9808;52.402;16.678;2023-11-18T00:48:36;23.60;;;11.20;;
19343;SDS011;9808;52.402;16.678;2023-11-18T00:51:03;22.30;;;11.10;;
19343;SDS011;9808;52.402;16.678;2023-11-18T00:53:30;23.93;;;11.73;;
19343;SDS011;9808;52.402;16.678;2023-11-18T00:55:57;27.77;;;11.50;;
19343;SDS011;9808;52.402;16.678;2023-11-18T00:58:25;23.13;;;10.97;;
19343;SDS011;9808;52.402;16.678;2023-11-18T01:00:52;26.37;;;12.10;;
19343;SDS011;9808;52.402;16.678;2023-11-18T01:03:19;26.43;;;11.63;;
19343;SDS011;9808;52.402;16.678;2023-11-18T01:05:46;24.83;;;11.93;;
19343;SDS011;9808;52.402;16.678;2023-11-18T01:08:14;26.50;;;12.17;;
19343;SDS011;9808;52.402;16.678;2023-11-18T01:10:41;26.73;;;11.87;;
19343;SDS011;9808;52.402;16.678;2023-11-18T01:13:08;25.43;;;12.57;;
19343;SDS011;9808;52.402;16.678;2023-11-18T01:15:35;26.87;;;12.43;;
19343;SDS011;9808;52.402;16.678;2023-11-18T01:18:03;27.63;;;12.80;;
19343;SDS011;9808;52.402;16.678;2023-11-18T01:20:30;36.37;;;13.30;;
19343;SDS011;9808;52.402;16.678;2023-11-18T01:22:57;25.93;;;12.47;;
19343;SDS011;9808;52.402;16.678;2023-11-18T01:25:24;26.30;;;12.33;;
19343;SDS011;9808;52.402;16.678;2023-11-18T01:27:53;29.37;;;12.70;;
19343;SDS011;9808;52.402;16.678;2023-11-18T01:30:20;24.53;;;13.13;;
19343;SDS011;9808;52.402;16.678;2023-11-18T01:32:50;28.93;;;12.30;;
19343;SDS011;9808;52.402;16.678;2023-11-18T01:35:17;26.73;;;12.50;;
19343;SDS011;9808;52.402;16.678;2023-11-18T01:37:45;30.33;;;12.70;;
19343;SDS011;9808;52.402;16.678;2023-11-18T01:40:14;25.77;;;12.17;;
19343;SDS011;9808;52.402;16.678;2023-11-18T01:42:43;27.23;;;12.90;;
19343;SDS011;9808;52.402;16.678;2023-11-18T01:45:11;27.00;;;11.87;;
19343;SDS011;9808;52.402;16.678;2023-11-18T01:47:38;30.63;;;12.70;;
19343;SDS011;9808;52.402;16.678;2023-11-18T01:50:06;27.63;;;12.70;;
19343;SDS011;9808;52.402;16.678;2023-11-18T01:52:35;30.23;;;12.90;;
19343;SDS011;9808;52.402;16.678;2023-11-18T01:55:02;31.73;;;14.47;;
19343;SDS011;9808;52.402;16.678;2023-11-18T01:57:35;31.67;;;13.60;;
19343;SDS011;9808;52.402;16.678;2023-11-18T02:00:03;30.93;;;12.93;;
19343;SDS011;9808;52.402;16.678;2023-11-18T02:02:32;26.53;;;11.77;;
19343;SDS011;9808;52.402;16.678;2023-11-18T02:05:02;31.30;;;12.90;;
19343;SDS011;9808;52.402;16.678;2023-11-18T02:07:32;27.80;;;12.27;;
19343;SDS011;9808;52.402;16.678;2023-11-18T02:10:03;25.43;;;11.87;;
19343;SDS011;9808;52.402;16.678;2023-11-18T02:12:53;25.37;;;11.40;;
19343;SDS011;9808;52.402;16.678;2023-11-18T02:15:23;27.30;;;11.93;;
19343;SDS011;9808;52.402;16.678;2023-11-18T02:17:52;26.40;;;11.40;;
19343;SDS011;9808;52.402;16.678;2023-11-18T02:20:20;23.27;;;11.40;;
19343;SDS011;9808;52.402;16.678;2023-11-18T02:22:49;24.37;;;10.60;;
19343;SDS011;9808;52.402;16.678;2023-11-18T02:25:17;24.43;;;11.57;;
19343;SDS011;9808;52.402;16.678;2023-11-18T02:27:45;23.13;;;10.90;;
19343;SDS011;9808;52.402;16.678;2023-11-18T02:30:13;21.63;;;10.70;;
19343;SDS011;9808;52.402;16.678;2023-11-18T02:33:03;26.23;;;11.57;;
19343;SDS011;9808;52.402;16.678;2023-11-18T02:35:41;26.20;;;10.87;;
19343;SDS011;9808;52.402;16.678;2023-11-18T02:38:16;21.63;;;10.83;;
19343;SDS011;9808;52.402;16.678;2023-11-18T02:40:45;22.97;;;10.70;;
19343;SDS011;9808;52.402;16.678;2023-11-18T02:43:14;25.23;;;11.57;;
19343;SDS011;9808;52.402;16.678;2023-11-18T02:45:43;26.33;;;11.17;;
19343;SDS011;9808;52.402;16.678;2023-11-18T02:48:10;24.83;;;11.20;;
19343;SDS011;9808;52.402;16.678;2023-11-18T02:50:38;23.97;;;11.10;;
19343;SDS011;9808;52.402;16.678;2023-11-18T02:53:08;30.03;;;12.03;;
19343;SDS011;9808;52.402;16.678;2023-11-18T02:55:35;28.77;;;11.80;;
19343;SDS011;9808;52.402;16.678;2023-11-18T02:58:03;24.63;;;11.47;;
19343;SDS011;9808;52.402;16.678;2023-11-18T03:00:32;27.50;;;12.20;;
19343;SDS011;9808;52.402;16.678;2023-11-18T03:03:00;27.70;;;12.43;;
19343;SDS011;9808;52.402;16.678;2023-11-18T03:05:30;23.17;;;10.87;;
19343;SDS011;9808;52.402;16.678;2023-11-18T03:07:57;25.97;;;11.67;;
19343;SDS011;9808;52.402;16.678;2023-11-18T03:10:24;29.77;;;11.37;;
19343;SDS011;9808;52.402;16.678;2023-11-18T03:12:53;27.63;;;11.77;;
19343;SDS011;9808;52.402;16.678;2023-11-18T03:15:21;24.47;;;11.00;;
19343;SDS011;9808;52.402;16.678;2023-11-18T03:17:49;28.90;;;11.47;;
19343;SDS011;9808;52.402;16.678;2023-11-18T03:20:18;29.50;;;12.37;;
19343;SDS011;9808;52.402;16.678;2023-11-18T03:22:46;28.33;;;11.87;;
19343;SDS011;9808;52.402;16.678;2023-11-18T03:25:14;30.57;;;12.03;;
19343;SDS011;9808;52.402;16.678;2023-11-18T03:27:41;30.03;;;11.50;;
19343;SDS011;9808;52.402;16.678;2023-11-18T03:30:08;27.97;;;12.23;;
19343;SDS011;9808;52.402;16.678;2023-11-18T03:32:36;26.47;;;11.50;;
19343;SDS011;9808;52.402;16.678;2023-11-18T03:35:04;28.33;;;11.50;;
19343;SDS011;9808;52.402;16.678;2023-11-18T03:37:39;28.40;;;11.20;;
19343;SDS011;9808;52.402;16.678;2023-11-18T03:40:11;28.40;;;12.10;;
19343;SDS011;9808;52.402;16.678;2023-11-18T03:42:40;28.10;;;11.60;;
19343;SDS011;9808;52.402;16.678;2023-11-18T03:45:08;28.23;;;12.37;;
19343;SDS011;9808;52.402;16.678;2023-11-18T03:47:36;30.47;;;12.50;;
19343;SDS011;9808;52.402;16.678;2023-11-18T03:50:04;28.00;;;12.60;;
19343;SDS011;9808;52.402;16.678;2023-11-18T03:52:32;28.00;;;11.83;;
19343;SDS011;9808;52.402;16.678;2023-11-18T03:55:02;25.17;;;11.57;;
19343;SDS011;9808;52.402;16.678;2023-11-18T03:57:30;23.57;;;11.07;;
19343;SDS011;9808;52.402;16.678;2023-11-18T03:59:58;27.47;;;11.60;;
19343;SDS011;9808;52.402;16.678;2023-11-18T04:02:25;27.07;;;11.73;;
19343;SDS011;9808;52.402;16.678;2023-11-18T04:04:52;26.50;;;10.97;;
19343;SDS011;9808;52.402;16.678;2023-11-18T04:07:20;24.03;;;11.40;;
19343;SDS011;9808;52.402;16.678;2023-11-18T04:09:48;22.50;;;10.53;;
19343;SDS011;9808;52.402;16.678;2023-11-18T04:12:15;21.43;;;9.60;;
19343;SDS011;9808;52.402;16.678;2023-11-18T04:14:42;21.67;;;9.73;;
19343;SDS011;9808;52.402;16.678;2023-11-18T04:17:09;18.40;;;9.00;;
19343;SDS011;9808;52.402;16.678;2023-11-18T04:19:37;19.70;;;9.80;;
19343;SDS011;9808;52.402;16.678;2023-11-18T04:22:05;21.27;;;10.00;;
19343;SDS011;9808;52.402;16.678;2023-11-18T04:24:32;19.60;;;10.00;;
19343;SDS011;9808;52.402;16.678;2023-11-18T04:27:01;20.20;;;9.90;;
19343;SDS011;9808;52.402;16.678;2023-11-18T04:29:28;20.90;;;9.60;;
19343;SDS011;9808;52.402;16.678;2023-11-18T04:31:56;22.07;;;9.93;;
19343;SDS011;9808;52.402;16.678;2023-11-18T04:34:23;23.57;;;10.37;;
19343;SDS011;9808;52.402;16.678;2023-11-18T04:36:51;22.73;;;10.77;;
19343;SDS011;9808;52.402;16.678;2023-11-18T04:39:18;25.83;;;11.00;;
19343;SDS011;9808;52.402;16.678;2023-11-18T04:41:47;22.37;;;10.90;;
19343;SDS011;9808;52.402;16.678;2023-11-18T04:44:14;22.93;;;11.67;;
19343;SDS011;9808;52.402;16.678;2023-11-18T04:46:42;22.50;;;10.23;;
19343;SDS011;9808;52.402;16.678;2023-11-18T04:49:11;23.30;;;11.57;;
19343;SDS011;9808;52.402;16.678;2023-11-18T04:51:38;30.00;;;12.30;;
19343;SDS011;9808;52.402;16.678;2023-11-18T04:54:06;27.83;;;11.00;;
19343;SDS011;9808;52.402;16.678;2023-11-18T04:56:34;24.67;;;12.03;;
19343;SDS011;9808;52.402;16.678;2023-11-18T04:59:02;21.57;;;11.47;;
19343;SDS011;9808;52.402;16.678;2023-11-18T05:01:34;23.40;;;11.33;;
19343;SDS011;9808;52.402;16.678;2023-11-18T05:04:03;23.93;;;10.90;;
19343;SDS011;9808;52.402;16.678;2023-11-18T05:06:31;24.43;;;11.70;;
19343;SDS011;9808;52.402;16.678;2023-11-18T05:08:58;23.77;;;11.27;;
19343;SDS011;9808;52.402;16.678;2023-11-18T05:11:25;24.90;;;11.73;;
19343;SDS011;9808;52.402;16.678;2023-11-18T05:13:52;23.87;;;11.43;;
19343;SDS011;9808;52.402;16.678;2023-11-18T05:16:20;25.73;;;12.23;;
19343;SDS011;9808;52.402;16.678;2023-11-18T05:18:48;26.23;;;11.70;;
19343;SDS011;9808;52.402;16.678;2023-11-18T05:21:15;27.33;;;11.30;;
19343;SDS011;9808;52.402;16.678;2023-11-18T05:23:42;22.80;;;11.83;;
19343;SDS011;9808;52.402;16.678;2023-11-18T05:26:09;26.53;;;11.90;;
19343;SDS011;9808;52.402;16.678;2023-11-18T05:28:37;27.33;;;11.97;;
19343;SDS011;9808;52.402;16.678;2023-11-18T05:31:04;22.57;;;11.13;;
19343;SDS011;9808;52.402;16.678;2023-11-18T05:33:32;23.97;;;11.60;;
19343;SDS011;9808;52.402;16.678;2023-11-18T05:36:02;26.20;;;11.37;;
19343;SDS011;9808;52.402;16.678;2023-11-18T05:38:32;22.20;;;11.13;;
19343;SDS011;9808;52.402;16.678;2023-11-18T05:41:01;25.23;;;11.37;;
19343;SDS011;9808;52.402;16.678;2023-11-18T05:43:30;23.83;;;10.67;;
19343;SDS011;9808;52.402;16.678;2023-11-18T05:46:07;23.20;;;11.07;;
19343;SDS011;9808;52.402;16.678;2023-11-18T05:48:48;22.80;;;11.63;;
19343;SDS011;9808;52.402;16.678;2023-11-18T05:51:20;23.93;;;11.30;;
19343;SDS011;9808;52.402;16.678;2023-11-18T05:53:48;25.03;;;12.10;;
19343;SDS011;9808;52.402;16.678;2023-11-18T05:56:15;23.70;;;11.93;;
19343;SDS011;9808;52.402;16.678;2023-11-18T05:58:43;23.40;;;11.00;;
19343;SDS011;9808;52.402;16.678;2023-11-18T06:01:10;24.80;;;11.90;;
19343;SDS011;9808;52.402;16.678;2023-11-18T06:03:38;21.40;;;10.60;;
19343;SDS011;9808;52.402;16.678;2023-11-18T06:06:09;22.63;;;10.13;;
19343;SDS011;9808;52.402;16.678;2023-11-18T06:08:37;20.30;;;10.40;;
19343;SDS011;9808;52.402;16.678;2023-11-18T06:11:09;21.80;;;10.43;;
19343;SDS011;9808;52.402;16.678;2023-11-18T06:13:40;23.63;;;11.80;;
19343;SDS011;9808;52.402;16.678;2023-11-18T06:16:13;26.57;;;11.60;;
19343;SDS011;9808;52.402;16.678;2023-11-18T06:18:43;22.57;;;10.83;;
19343;SDS011;9808;52.402;16.678;2023-11-18T06:21:11;22.00;;;10.57;;
19343;SDS011;9808;52.402;16.678;2023-11-18T06:23:39;23.90;;;10.67;;
19343;SDS011;9808;52.402;16.678;2023-11-18T06:26:06;20.23;;;10.43;;
19343;SDS011;9808;52.402;16.678;2023-11-18T06:28:37;21.77;;;11.00;;
19343;SDS011;9808;52.402;16.678;2023-11-18T06:31:05;23.03;;;10.53;;
19343;SDS011;9808;52.402;16.678;2023-11-18T06:33:38;20.20;;;10.30;;
19343;SDS011;9808;52.402;16.678;2023-11-18T06:38:40;22.57;;;10.90;;
19343;SDS011;9808;52.402;16.678;2023-11-18T06:41:08;22.57;;;11.53;;
19343;SDS011;9808;52.402;16.678;2023-11-18T06:43:39;22.47;;;10.73;;
19343;SDS011;9808;52.402;16.678;2023-11-18T06:46:32;30.33;;;13.70;;
19343;SDS011;9808;52.402;16.678;2023-11-18T06:49:02;19.47;;;9.90;;
19343;SDS011;9808;52.402;16.678;2023-11-18T06:51:31;19.33;;;9.23;;
19343;SDS011;9808;52.402;16.678;2023-11-18T06:54:02;18.70;;;9.07;;
19343;SDS011;9808;52.402;16.678;2023-11-18T06:56:35;16.27;;;8.07;;
19343;SDS011;9808;52.402;16.678;2023-11-18T06:59:07;13.93;;;7.60;;
19343;SDS011;9808;52.402;16.678;2023-11-18T07:01:34;17.30;;;7.40;;
19343;SDS011;9808;52.402;16.678;2023-11-18T07:04:02;18.17;;;6.70;;
19343;SDS011;9808;52.402;16.678;2023-11-18T07:06:30;11.30;;;6.00;;
19343;SDS011;9808;52.402;16.678;2023-11-18T07:08:57;11.23;;;5.77;;
19343;SDS011;9808;52.402;16.678;2023-11-18T07:11:27;12.37;;;5.90;;
19343;SDS011;9808;52.402;16.678;2023-11-18T07:13:54;13.27;;;6.20;;
19343;SDS011;9808;52.402;16.678;2023-11-18T07:16:23;11.47;;;6.50;;
19343;SDS011;9808;52.402;16.678;2023-11-18T07:18:52;17.40;;;6.60;;
19343;SDS011;9808;52.402;16.678;2023-11-18T07:21:19;11.90;;;6.37;;
19343;SDS011;9808;52.402;16.678;2023-11-18T07:23:47;12.90;;;6.77;;
19343;SDS011;9808;52.402;16.678;2023-11-18T07:26:14;15.47;;;7.60;;
19343;SDS011;9808;52.402;16.678;2023-11-18T07:28:41;17.23;;;8.23;;
19343;SDS011;9808;52.402;16.678;2023-11-18T07:31:10;17.43;;;8.60;;
19343;SDS011;9808;52.402;16.678;2023-11-18T07:33:38;18.03;;;8.07;;
19343;SDS011;9808;52.402;16.678;2023-11-18T07:36:09;17.07;;;8.60;;
19343;SDS011;9808;52.402;16.678;2023-11-18T07:38:37;21.90;;;9.77;;
19343;SDS011;9808;52.402;16.678;2023-11-18T07:41:06;17.93;;;8.37;;
19343;SDS011;9808;52.402;16.678;2023-11-18T07:43:35;17.87;;;9.23;;
19343;SDS011;9808;52.402;16.678;2023-11-18T07:46:03;21.00;;;10.13;;
19343;SDS011;9808;52.402;16.678;2023-11-18T07:48:34;17.50;;;9.43;;
19343;SDS011;9808;52.402;16.678;2023-11-18T07:51:01;22.87;;;10.20;;
19343;SDS011;9808;52.402;16.678;2023-11-18T07:53:29;21.43;;;10.10;;
19343;SDS011;9808;52.402;16.678;2023-11-18T07:55:57;23.43;;;10.37;;
19343;SDS011;9808;52.402;16.678;2023-11-18T07:58:24;21.40;;;9.53;;
19343;SDS011;9808;52.402;16.678;2023-11-18T08:00:53;20.47;;;10.10;;
19343;SDS011;9808;52.402;16.678;2023-11-18T08:03:21;23.47;;;10.80;;
19343;SDS011;9808;52.402;16.678;2023-11-18T08:05:49;28.50;;;11.37;;
19343;SDS011;9808;52.402;16.678;2023-11-18T08:08:17;24.07;;;10.73;;
19343;SDS011;9808;52.402;16.678;2023-11-18T08:10:44;23.73;;;10.13;;
19343;SDS011;9808;52.402;16.678;2023-11-18T08:13:15;20.77;;;10.23;;
19343;SDS011;9808;52.402;16.678;2023-11-18T08:15:43;28.17;;;11.07;;
19343;SDS011;9808;52.402;16.678;2023-11-18T08:18:13;28.83;;;10.07;;
19343;SDS011;9808;52.402;16.678;2023-11-18T08:20:41;24.87;;;10.80;;
19343;SDS011;9808;52.402;16.678;2023-11-18T08:23:09;25.40;;;11.57;;
19343;SDS011;9808;52.402;16.678;2023-11-18T08:25:37;24.77;;;10.43;;
19343;SDS011;9808;52.402;16.678;2023-11-18T08:28:07;23.60;;;11.33;;
19343;SDS011;9808;52.402;16.678;2023-11-18T08:30:34;21.63;;;10.63;;
19343;SDS011;9808;52.402;16.678;2023-11-18T08:33:02;22.40;;;11.40;;
19343;SDS011;9808;52.402;16.678;2023-11-18T08:35:32;24.97;;;10.87;;
19343;SDS011;9808;52.402;16.678;2023-11-18T08:37:59;28.40;;;11.27;;
19343;SDS011;9808;52.402;16.678;2023-11-18T08:40:28;21.23;;;10.80;;
19343;SDS011;9808;52.402;16.678;2023-11-18T08:42:55;25.60;;;12.00;;
19343;SDS011;9808;52.402;16.678;2023-11-18T08:45:25;23.40;;;11.30;;
19343;SDS011;9808;52.402;16.678;2023-11-18T08:47:55;23.70;;;10.93;;
19343;SDS011;9808;52.402;16.678;2023-11-18T08:50:23;24.87;;;11.27;;
19343;SDS011;9808;52.402;16.678;2023-11-18T08:52:51;25.60;;;10.60;;
19343;SDS011;9808;52.402;16.678;2023-11-18T08:55:29;22.23;;;10.80;;
19343;SDS011;9808;52.402;16.678;2023-11-18T08:58:09;22.50;;;11.10;;
19343;SDS011;9808;52.402;16.678;2023-11-18T09:00:47;19.30;;;9.90;;
19343;SDS011;9808;52.402;16.678;2023-11-18T09:03:15;25.77;;;11.93;;
19343;SDS011;9808;52.402;16.678;2023-11-18T09:08:25;35.30;;;14.23;;
19343;SDS011;9808;52.402;16.678;2023-11-18T09:10:58;26.37;;;13.03;;
19343;SDS011;9808;52.402;16.678;2023-11-18T09:13:26;26.13;;;12.40;;
19343;SDS011;9808;52.402;16.678;2023-11-18T09:16:04;25.50;;;12.17;;
19343;SDS011;9808;52.402;16.678;2023-11-18T09:18:36;26.13;;;12.80;;
19343;SDS011;9808;52.402;16.678;2023-11-18T09:21:08;24.03;;;11.50;;
19343;SDS011;9808;52.402;16.678;2023-11-18T09:23:42;21.77;;;11.03;;
19343;SDS011;9808;52.402;16.678;2023-11-18T09:26:11;24.80;;;11.87;;
19343;SDS011;9808;52.402;16.678;2023-11-18T09:28:39;23.07;;;11.13;;
19343;SDS011;9808;52.402;16.678;2023-11-18T09:31:06;20.90;;;10.60;;
19343;SDS011;9808;52.402;16.678;2023-11-18T09:33:43;20.13;;;10.30;;
19343;SDS011;9808;52.402;16.678;2023-11-18T09:36:19;19.37;;;10.53;;
19343;SDS011;9808;52.402;16.678;2023-11-18T09:38:47;19.53;;;10.30;;
19343;SDS011;9808;52.402;16.678;2023-11-18T09:41:19;21.30;;;9.97;;
19343;SDS011;9808;52.402;16.678;2023-11-18T09:43:55;22.17;;;10.73;;
19343;SDS011;9808;52.402;16.678;2023-11-18T09:46:24;20.07;;;10.30;;
19343;SDS011;9808;52.402;16.678;2023-11-18T09:49:04;24.40;;;11.23;;
19343;SDS011;9808;52.402;16.678;2023-11-18T09:51:42;21.17;;;11.07;;
19343;SDS011;9808;52.402;16.678;2023-11-18T09:54:15;22.37;;;10.93;;
19343;SDS011;9808;52.402;16.678;2023-11-18T09:57:02;22.83;;;11.77;;
19343;SDS011;9808;52.402;16.678;2023-11-18T10:02:24;21.27;;;10.17;;
19343;SDS011;9808;52.402;16.678;2023-11-18T10:04:52;19.07;;;10.00;;
19343;SDS011;9808;52.402;16.678;2023-11-18T10:07:24;17.63;;;9.40;;
19343;SDS011;9808;52.402;16.678;2023-11-18T10:09:59;20.60;;;9.33;;
19343;SDS011;9808;52.402;16.678;2023-11-18T10:12:28;18.87;;;9.90;;
19343;SDS011;9808;52.402;16.678;2023-11-18T10:14:56;20.07;;;10.23;;
19343;SDS011;9808;52.402;16.678;2023-11-18T10:17:25;19.83;;;9.27;;
19343;SDS011;9808;52.402;16.678;2023-11-18T10:19:57;17.77;;;9.20;;
19343;SDS011;9808;52.402;16.678;2023-11-18T10:22:39;16.13;;;8.60;;
19343;SDS011;9808;52.402;16.678;2023-11-18T10:25:09;16.13;;;8.73;;
19343;SDS011;9808;52.402;16.678;2023-11-18T10:27:39;18.67;;;9.03;;
19343;SDS011;9808;52.402;16.678;2023-11-18T10:30:12;16.93;;;8.67;;
19343;SDS011;9808;52.402;16.678;2023-11-18T10:32:58;14.73;;;8.23;;
19343;SDS011;9808;52.402;16.678;2023-11-18T10:35:32;15.57;;;7.90;;
19343;SDS011;9808;52.402;16.678;2023-11-18T10:38:03;16.10;;;8.40;;
19343;SDS011;9808;52.402;16.678;2023-11-18T10:40:33;14.97;;;7.97;;
19343;SDS011;9808;52.402;16.678;2023-11-18T10:43:04;16.73;;;8.23;;
19343;SDS011;9808;52.402;16.678;2023-11-18T10:45:36;16.27;;;8.40;;
19343;SDS011;9808;52.402;16.678;2023-11-18T10:48:11;17.80;;;9.07;;
19343;SDS011;9808;52.402;16.678;2023-11-18T10:50:45;17.53;;;8.53;;
19343;SDS011;9808;52.402;16.678;2023-11-18T10:53:12;19.13;;;9.87;;
19343;SDS011;9808;52.402;16.678;2023-11-18T10:55:42;17.10;;;8.93;;
19343;SDS011;9808;52.402;16.678;2023-11-18T10:58:10;15.83;;;8.50;;
19343;SDS011;9808;52.402;16.678;2023-11-18T11:00:47;18.30;;;9.17;;
19343;SDS011;9808;52.402;16.678;2023-11-18T11:03:18;17.50;;;8.63;;
19343;SDS011;9808;52.402;16.678;2023-11-18T11:05:45;17.67;;;8.30;;
19343;SDS011;9808;52.402;16.678;2023-11-18T11:08:14;17.87;;;8.97;;
19343;SDS011;9808;52.402;16.678;2023-11-18T11:10:54;16.97;;;9.03;;
19343;SDS011;9808;52.402;16.678;2023-11-18T11:13:25;20.27;;;10.00;;
19343;SDS011;9808;52.402;16.678;2023-11-18T11:15:53;18.60;;;9.97;;
19343;SDS011;9808;52.402;16.678;2023-11-18T11:18:23;18.97;;;9.57;;
19343;SDS011;9808;52.402;16.678;2023-11-18T11:21:07;19.00;;;9.53;;
19343;SDS011;9808;52.402;16.678;2023-11-18T11:24:00;18.10;;;9.63;;
19343;SDS011;9808;52.402;16.678;2023-11-18T11:26:39;18.77;;;10.00;;
19343;SDS011;9808;52.402;16.678;2023-11-18T11:29:21;20.77;;;10.33;;
19343;SDS011;9808;52.402;16.678;2023-11-18T11:34:29;17.33;;;9.17;;
19343;SDS011;9808;52.402;16.678;2023-11-18T11:37:00;20.07;;;9.83;;
19343;SDS011;9808;52.402;16.678;2023-11-18T11:39:29;18.97;;;10.47;;
19343;SDS011;9808;52.402;16.678;2023-11-18T11:42:08;23.40;;;10.87;;
19343;SDS011;9808;52.402;16.678;2023-11-18T11:44:35;18.57;;;10.37;;
19343;SDS011;9808;52.402;16.678;2023-11-18T11:47:08;19.57;;;10.07;;
19343;SDS011;9808;52.402;16.678;2023-11-18T11:49:47;20.47;;;10.13;;
19343;SDS011;9808;52.402;16.678;2023-11-18T11:55:06;22.63;;;11.07;;
19343;SDS011;9808;52.402;16.678;2023-11-18T11:57:38;20.47;;;10.53;;
19343;SDS011;9808;52.402;16.678;2023-11-18T12:00:09;20.70;;;11.23;;
19343;SDS011;9808;52.402;16.678;2023-11-18T12:02:50;21.30;;;10.53;;
19343;SDS011;9808;52.402;16.678;2023-11-18T12:05:24;18.77;;;9.33;;
19343;SDS011;9808;52.402;16.678;2023-11-18T12:07:53;19.60;;;10.63;;
19343;SDS011;9808;52.402;16.678;2023-11-18T12:10:25;22.80;;;11.40;;
19343;SDS011;9808;52.402;16.678;2023-11-18T12:13:11;24.20;;;11.97;;
19343;SDS011;9808;52.402;16.678;2023-11-18T12:15:52;22.73;;;11.67;;
19343;SDS011;9808;52.402;16.678;2023-11-18T12:18:24;23.20;;;10.93;;
19343;SDS011;9808;52.402;16.678;2023-11-18T12:20:51;23.73;;;11.67;;
19343;SDS011;9808;52.402;16.678;2023-11-18T12:23:23;28.67;;;13.03;;
19343;SDS011;9808;52.402;16.678;2023-11-18T12:25:52;28.00;;;12.50;;
19343;SDS011;9808;52.402;16.678;2023-11-18T12:28:26;24.37;;;12.77;;
19343;SDS011;9808;52.402;16.678;2023-11-18T12:30:54;28.50;;;13.47;;
19343;SDS011;9808;52.402;16.678;2023-11-18T12:41:33;24.60;;;12.23;;
19343;SDS011;9808;52.402;16.678;2023-11-18T12:46:51;29.83;;;14.13;;
19343;SDS011;9808;52.402;16.678;2023-11-18T12:49:38;30.00;;;15.30;;
19343;SDS011;9808;52.402;16.678;2023-11-18T12:52:10;33.10;;;15.33;;
19343;SDS011;9808;52.402;16.678;2023-11-18T12:54:39;31.70;;;15.17;;
19343;SDS011;9808;52.402;16.678;2023-11-18T12:57:10;30.03;;;13.83;;
19343;SDS011;9808;52.402;16.678;2023-11-18T12:59:41;29.50;;;13.30;;
19343;SDS011;9808;52.402;16.678;2023-11-18T13:02:09;24.40;;;13.03;;
19343;SDS011;9808;52.402;16.678;2023-11-18T13:04:40;25.23;;;13.30;;
19343;SDS011;9808;52.402;16.678;2023-11-18T13:07:07;28.33;;;12.60;;
19343;SDS011;9808;52.402;16.678;2023-11-18T13:09:35;24.73;;;12.80;;
19343;SDS011;9808;52.402;16.678;2023-11-18T13:12:02;24.60;;;11.87;;
19343;SDS011;9808;52.402;16.678;2023-11-18T13:14:35;28.53;;;13.80;;
19343;SDS011;9808;52.402;16.678;2023-11-18T13:17:03;30.67;;;15.07;;
19343;SDS011;9808;52.402;16.678;2023-11-18T13:19:35;31.33;;;14.33;;
19343;SDS011;9808;52.402;16.678;2023-11-18T13:22:03;32.07;;;15.30;;
19343;SDS011;9808;52.402;16.678;2023-11-18T13:24:30;33.00;;;15.80;;
19343;SDS011;9808;52.402;16.678;2023-11-18T13:26:58;43.13;;;16.57;;
19343;SDS011;9808;52.402;16.678;2023-11-18T13:29:30;37.53;;;15.73;;
19343;SDS011;9808;52.402;16.678;2023-11-18T13:31:58;32.47;;;14.37;;
19343;SDS011;9808;52.402;16.678;2023-11-18T13:34:27;26.63;;;13.00;;
19343;SDS011;9808;52.402;16.678;2023-11-18T13:36:56;26.27;;;12.77;;
19343;SDS011;9808;52.402;16.678;2023-11-18T13:39:24;27.83;;;12.83;;
19343;SDS011;9808;52.402;16.678;2023-11-18T13:41:53;25.43;;;12.70;;
19343;SDS011;9808;52.402;16.678;2023-11-18T13:44:36;22.07;;;11.90;;
19343;SDS011;9808;52.402;16.678;2023-11-18T13:47:12;27.90;;;13.17;;
19343;SDS011;9808;52.402;16.678;2023-11-18T13:49:43;26.13;;;13.10;;
19343;SDS011;9808;52.402;16.678;2023-11-18T13:52:17;26.07;;;13.53;;
19343;SDS011;9808;52.402;16.678;2023-11-18T13:54:46;23.53;;;12.20;;
19343;SDS011;9808;52.402;16.678;2023-11-18T13:57:14;23.37;;;11.87;;
19343;SDS011;9808;52.402;16.678;2023-11-18T13:59:41;21.60;;;11.00;;
19343;SDS011;9808;52.402;16.678;2023-11-18T14:02:11;20.67;;;10.70;;
19343;SDS011;9808;52.402;16.678;2023-11-18T14:04:39;23.53;;;10.97;;
19343;SDS011;9808;52.402;16.678;2023-11-18T14:07:09;21.80;;;11.63;;
19343;SDS011;9808;52.402;16.678;2023-11-18T14:09:38;22.87;;;12.00;;
19343;SDS011;9808;52.402;16.678;2023-11-18T14:12:08;21.10;;;10.47;;
19343;SDS011;9808;52.402;16.678;2023-11-18T14:14:35;21.27;;;10.93;;
19343;SDS011;9808;52.402;16.678;2023-11-18T14:17:04;19.83;;;10.83;;
19343;SDS011;9808;52.402;16.678;2023-11-18T14:19:32;24.10;;;10.87;;
19343;SDS011;9808;52.402;16.678;2023-11-18T14:22:02;22.40;;;11.50;;
19343;SDS011;9808;52.402;16.678;2023-11-18T14:24:33;25.37;;;12.37;;
19343;SDS011;9808;52.402;16.678;2023-11-18T14:27:00;24.70;;;12.80;;
19343;SDS011;9808;52.402;16.678;2023-11-18T14:29:30;30.67;;;14.10;;
19343;SDS011;9808;52.402;16.678;2023-11-18T14:31:58;36.47;;;15.33;;
19343;SDS011;9808;52.402;16.678;2023-11-18T14:34:25;60.37;;;24.47;;
19343;SDS011;9808;52.402;16.678;2023-11-18T14:36:53;57.17;;;27.10;;
19343;SDS011;9808;52.402;16.678;2023-11-18T14:39:20;52.73;;;25.80;;
19343;SDS011;9808;52.402;16.678;2023-11-18T14:41:49;64.13;;;29.33;;
19343;SDS011;9808;52.402;16.678;2023-11-18T14:44:17;75.13;;;34.10;;
19343;SDS011;9808;52.402;16.678;2023-11-18T14:46:45;71.93;;;33.37;;
19343;SDS011;9808;52.402;16.678;2023-11-18T14:49:13;71.83;;;33.53;;
19343;SDS011;9808;52.402;16.678;2023-11-18T14:51:43;70.57;;;30.27;;
19343;SDS011;9808;52.402;16.678;2023-11-18T14:54:11;63.43;;;28.67;;
19343;SDS011;9808;52.402;16.678;2023-11-18T14:56:38;53.63;;;24.93;;
19343;SDS011;9808;52.402;16.678;2023-11-18T14:59:06;56.23;;;24.67;;
19343;SDS011;9808;52.402;16.678;2023-11-18T15:01:37;53.33;;;23.90;;
19343;SDS011;9808;52.402;16.678;2023-11-18T15:04:05;54.03;;;24.60;;